createdAt,value
2023-02-08T00:00:43.487Z,0.60
2023-02-08T00:03:10.509Z,0.80
2023-02-08T00:05:37.800Z,0.80
2023-02-08T00:08:05.565Z,0.70
2023-02-08T00:10:34.580Z,0.70
2023-02-08T00:13:02.611Z,0.60
2023-02-08T00:15:29.855Z,0.70
2023-02-08T00:17:56.890Z,0.60
2023-02-08T00:20:24.068Z,0.50
2023-02-08T00:22:52.629Z,0.50
2023-02-08T00:25:21.080Z,0.50
2023-02-08T00:27:49.545Z,0.60
2023-02-08T00:30:16.815Z,0.50
2023-02-08T00:32:43.822Z,0.60
2023-02-08T00:35:10.981Z,0.60
2023-02-08T00:37:37.935Z,0.50
2023-02-08T00:40:05.941Z,0.60
2023-02-08T00:42:34.563Z,0.60
2023-02-08T00:45:03.060Z,0.70
2023-02-08T00:47:30.620Z,0.60
2023-02-08T00:49:57.750Z,0.50
2023-02-08T00:52:24.900Z,0.30
2023-02-08T00:54:51.929Z,0.40
2023-02-08T00:57:19.002Z,0.40
2023-02-08T00:59:46.114Z,0.40
2023-02-08T01:02:14.735Z,0.30
2023-02-08T01:04:41.940Z,0.30
2023-02-08T01:07:09.039Z,0.40
2023-02-08T01:09:36.282Z,0.40
2023-02-08T01:12:04.050Z,0.40
2023-02-08T01:14:31.324Z,0.50
2023-02-08T01:16:58.539Z,0.50
2023-02-08T01:19:27.990Z,0.60
2023-02-08T01:21:55.145Z,0.60
2023-02-08T01:24:22.198Z,0.70
2023-02-08T01:26:49.373Z,0.70
2023-02-08T01:29:16.412Z,0.70
2023-02-08T01:31:44.910Z,0.60
2023-02-08T01:34:12.865Z,0.60
2023-02-08T01:36:41.496Z,0.70
2023-02-08T01:39:12.329Z,0.70
2023-02-08T01:41:44.136Z,0.50
2023-02-08T01:45:03.126Z,0.40
2023-02-08T01:47:30.624Z,0.50
2023-02-08T01:49:57.865Z,0.50
2023-02-08T01:52:28.671Z,0.40
2023-02-08T01:55:00.653Z,0.40
2023-02-08T01:57:28.799Z,0.40
2023-02-08T02:00:01.620Z,0.40
2023-02-08T02:02:29.266Z,0.50
2023-02-08T02:04:56.938Z,0.40
2023-02-08T02:07:28.833Z,0.30
2023-02-08T02:10:04.553Z,0.40
2023-02-08T02:12:33.494Z,0.30
2023-02-08T02:15:02.067Z,0.20
2023-02-08T02:17:29.302Z,0.10
2023-02-08T02:20:05.050Z,0.10
2023-02-08T02:23:31.112Z,0.00
2023-02-08T02:27:04.887Z,0.10
2023-02-08T02:30:27.909Z,0.20
2023-02-08T02:33:28.061Z,0.20
2023-02-08T02:36:01.594Z,0.20
2023-02-08T02:38:44.288Z,0.30
2023-02-08T02:41:44.314Z,0.10
2023-02-08T02:44:23.552Z,0.10
2023-02-08T02:47:01.340Z,0.10
2023-02-08T02:49:36.994Z,0.10
2023-02-08T02:52:08.598Z,0.20
2023-02-08T02:54:40.992Z,0.10
2023-02-08T02:57:14.820Z,0.10
2023-02-08T02:59:43.051Z,0.20
2023-02-08T03:02:10.637Z,0.20
2023-02-08T03:04:54.504Z,0.10
2023-02-08T03:08:04.538Z,0.10
2023-02-08T03:10:52.171Z,0.10
2023-02-08T03:13:32.131Z,0.20
2023-02-08T03:16:12.463Z,0.10
2023-02-08T03:18:58.975Z,0.10
2023-02-08T03:21:40.252Z,0.00
2023-02-08T03:24:20.911Z,-0.10
2023-02-08T03:26:55.686Z,0.00
2023-02-08T03:29:37.003Z,-0.10
2023-02-08T03:32:10.432Z,-0.10
2023-02-08T03:34:46.317Z,-0.20
2023-02-08T03:37:21.410Z,-0.20
2023-02-08T03:39:52.270Z,-0.30
2023-02-08T03:42:23.693Z,-0.20
2023-02-08T03:44:56.369Z,-0.10
2023-02-08T03:47:27.178Z,0.00
2023-02-08T03:49:59.193Z,-0.20
2023-02-08T03:52:30.554Z,-0.30
2023-02-08T03:55:02.067Z,-0.20
2023-02-08T03:57:33.611Z,-0.10
2023-02-08T04:00:05.931Z,-0.20
2023-02-08T04:02:38.997Z,-0.20
2023-02-08T04:05:07.684Z,-0.30
2023-02-08T04:07:36.018Z,-0.20
2023-02-08T04:10:03.836Z,-0.20
2023-02-08T04:12:30.949Z,-0.10
2023-02-08T04:14:58.048Z,-0.10
2023-02-08T04:17:25.109Z,-0.20
2023-02-08T04:19:52.004Z,-0.30
2023-02-08T04:22:19.067Z,-0.30
2023-02-08T04:24:47.390Z,-0.30
2023-02-08T04:27:14.352Z,-0.30
2023-02-08T04:29:41.727Z,-0.30
2023-02-08T04:32:13.348Z,-0.20
2023-02-08T04:34:40.867Z,-0.20
2023-02-08T04:37:09.044Z,-0.30
2023-02-08T04:39:36.197Z,-0.40
2023-02-08T04:42:05.487Z,-0.30
2023-02-08T04:44:32.860Z,-0.20
2023-02-08T04:47:00.246Z,-0.20
2023-02-08T04:49:27.255Z,-0.20
2023-02-08T04:51:54.356Z,-0.30
2023-02-08T04:54:21.454Z,-0.30
2023-02-08T04:56:48.609Z,-0.40
2023-02-08T04:59:17.231Z,-0.40
2023-02-08T05:01:44.524Z,-0.40
2023-02-08T05:04:11.623Z,-0.30
2023-02-08T05:06:38.691Z,-0.30
2023-02-08T05:09:08.205Z,-0.30
2023-02-08T05:11:36.396Z,-0.30
2023-02-08T05:14:03.803Z,-0.40
2023-02-08T05:16:32.777Z,-0.40
2023-02-08T05:18:59.789Z,-0.40
2023-02-08T05:21:26.921Z,-0.40
2023-02-08T05:23:54.215Z,-0.40
2023-02-08T05:26:21.762Z,-0.40
2023-02-08T05:28:49.029Z,-0.40
2023-02-08T05:31:20.914Z,-0.40
2023-02-08T05:33:50.976Z,-0.50
2023-02-08T05:36:19.038Z,-0.50
2023-02-08T05:38:46.241Z,-0.50
2023-02-08T05:41:13.199Z,-0.40
2023-02-08T05:43:40.616Z,-0.50
2023-02-08T05:46:08.094Z,-0.50
2023-02-08T05:48:35.334Z,-0.60
2023-02-08T05:51:03.888Z,-0.70
2023-02-08T05:53:31.230Z,-0.70
2023-02-08T05:55:58.567Z,-0.70
2023-02-08T05:58:26.542Z,-0.70
2023-02-08T06:00:53.684Z,-0.60
2023-02-08T06:03:20.783Z,-0.50
2023-02-08T06:05:47.996Z,-0.60
2023-02-08T06:08:16.569Z,-0.70
2023-02-08T06:10:43.832Z,-0.80
2023-02-08T06:13:10.813Z,-0.70
2023-02-08T06:15:37.831Z,-0.70
2023-02-08T06:18:05.069Z,-0.80
2023-02-08T06:20:32.145Z,-0.90
2023-02-08T06:22:59.140Z,-0.80
2023-02-08T06:25:27.608Z,-0.80
2023-02-08T06:27:57.295Z,-0.90
2023-02-08T06:30:24.577Z,-0.90
2023-02-08T06:32:51.499Z,-0.80
2023-02-08T06:35:18.875Z,-1.00
2023-02-08T06:37:46.175Z,-0.90
2023-02-08T06:40:13.313Z,-0.90
2023-02-08T06:42:43.077Z,-0.90
2023-02-08T06:45:13.362Z,-0.80
2023-02-08T06:47:40.867Z,-0.70
2023-02-08T06:50:09.093Z,-0.80
2023-02-08T06:52:36.443Z,-0.80
2023-02-08T06:55:04.437Z,-0.70
2023-02-08T06:57:31.435Z,-0.70
2023-02-08T06:59:59.906Z,-0.80
2023-02-08T07:02:27.698Z,-0.70
2023-02-08T07:04:54.750Z,-0.80
2023-02-08T07:07:21.770Z,-0.70
2023-02-08T07:09:48.711Z,-0.60
2023-02-08T07:12:16.111Z,-0.50
2023-02-08T07:14:43.942Z,-0.60
2023-02-08T07:17:19.496Z,-0.60
2023-02-08T07:19:46.537Z,-0.60
2023-02-08T07:22:13.480Z,-0.50
2023-02-08T07:24:41.546Z,-0.50
2023-02-08T07:27:12.094Z,-0.40
2023-02-08T07:29:39.679Z,-0.40
2023-02-08T07:32:08.363Z,-0.40
2023-02-08T07:34:38.356Z,-0.40
2023-02-08T07:37:05.329Z,-0.50
2023-02-08T07:39:32.530Z,-0.50
2023-02-08T07:41:59.834Z,-0.40
2023-02-08T07:44:26.885Z,-0.30
2023-02-08T07:46:53.973Z,-0.30
2023-02-08T07:49:21.015Z,-0.30
2023-02-08T07:51:49.362Z,-0.30
2023-02-08T07:54:16.397Z,-0.10
2023-02-08T07:56:43.468Z,-0.10
2023-02-08T07:59:11.230Z,0.10
2023-02-08T08:01:38.336Z,0.30
2023-02-08T08:04:05.479Z,0.40
2023-02-08T08:06:32.445Z,0.50
2023-02-08T08:09:00.963Z,0.60
2023-02-08T08:11:28.093Z,0.80
2023-02-08T08:13:55.126Z,0.90
2023-02-08T08:16:22.625Z,1.00
2023-02-08T08:18:50.799Z,1.10
2023-02-08T08:21:17.874Z,1.20
2023-02-08T08:23:45.228Z,1.30
2023-02-08T08:26:16.175Z,1.30
2023-02-08T08:28:43.762Z,1.30
2023-02-08T08:31:12.401Z,1.40
2023-02-08T08:33:39.646Z,1.50
2023-02-08T08:36:08.057Z,1.60
2023-02-08T08:38:35.297Z,1.60
2023-02-08T08:41:03.233Z,1.70
2023-02-08T08:43:31.650Z,1.70
2023-02-08T08:45:58.770Z,1.80
2023-02-08T08:48:25.918Z,1.90
2023-02-08T08:50:54.964Z,1.90
2023-02-08T08:53:22.172Z,1.90
2023-02-08T08:55:49.292Z,2.00
2023-02-08T08:58:16.329Z,2.00
2023-02-08T09:00:44.733Z,2.10
2023-02-08T09:03:11.770Z,2.10
2023-02-08T09:05:38.784Z,2.20
2023-02-08T09:08:06.246Z,2.20
2023-02-08T09:10:33.963Z,2.20
2023-02-08T09:13:03.803Z,2.20
2023-02-08T09:15:30.881Z,2.30
2023-02-08T09:18:02.804Z,2.30
2023-02-08T09:20:29.807Z,2.40
2023-02-08T09:23:05.755Z,2.50
2023-02-08T09:25:33.344Z,2.50
2023-02-08T09:28:00.817Z,2.60
2023-02-08T09:30:33.423Z,2.60
2023-02-08T09:33:01.866Z,2.70
2023-02-08T09:35:29.086Z,2.70
2023-02-08T09:37:58.353Z,2.80
2023-02-08T09:40:31.047Z,2.90
2023-02-08T09:43:09.224Z,3.10
2023-02-08T09:45:59.185Z,3.20
2023-02-08T09:48:32.578Z,3.30
2023-02-08T09:51:10.097Z,3.30
2023-02-08T09:53:46.109Z,3.40
2023-02-08T09:56:17.098Z,3.40
2023-02-08T09:58:46.442Z,3.40
2023-02-08T10:01:21.849Z,3.60
2023-02-08T10:03:53.247Z,3.60
2023-02-08T10:06:21.305Z,3.70
2023-02-08T10:08:54.312Z,3.70
2023-02-08T10:11:44.013Z,3.70
2023-02-08T10:14:33.913Z,3.80
2023-02-08T10:17:24.020Z,3.80
2023-02-08T10:20:04.667Z,3.80
2023-02-08T10:22:43.550Z,3.80
2023-02-08T10:28:57.366Z,4.00
2023-02-08T10:31:42.181Z,4.20
2023-02-08T10:34:30.822Z,4.40
2023-02-08T10:37:01.424Z,4.70
2023-02-08T10:39:35.514Z,4.80
2023-02-08T10:42:04.716Z,4.90
2023-02-08T10:44:48.342Z,5.10
2023-02-08T10:47:25.332Z,5.20
2023-02-08T10:50:02.677Z,5.30
2023-02-08T10:52:31.205Z,5.20
2023-02-08T10:54:59.035Z,5.10
2023-02-08T10:57:31.540Z,5.10
2023-02-08T11:00:03.199Z,5.00
2023-02-08T11:02:34.292Z,4.90
2023-02-08T11:05:04.957Z,4.90
2023-02-08T11:07:36.468Z,4.90
2023-02-08T11:10:34.347Z,4.90
2023-02-08T11:13:06.904Z,4.90
2023-02-08T11:15:40.395Z,4.80
2023-02-08T11:18:24.484Z,4.80
2023-02-08T11:20:56.866Z,4.80
2023-02-08T11:23:29.643Z,4.90
2023-02-08T11:26:19.322Z,4.90
2023-02-08T11:29:01.432Z,5.00
2023-02-08T11:31:30.039Z,4.90
2023-02-08T11:34:03.052Z,4.90
2023-02-08T11:36:33.000Z,4.80
2023-02-08T11:39:15.054Z,4.80
2023-02-08T11:41:44.482Z,4.80
2023-02-08T11:44:18.678Z,4.90
2023-02-08T11:46:48.461Z,4.90
2023-02-08T11:49:24.662Z,4.90
2023-02-08T11:51:53.063Z,5.00
2023-02-08T11:54:39.038Z,5.00
2023-02-08T11:57:16.147Z,5.00
2023-02-08T11:59:43.623Z,5.10
2023-02-08T12:02:36.083Z,5.10
2023-02-08T12:05:05.374Z,5.10
2023-02-08T12:07:57.608Z,5.00
2023-02-08T12:11:06.327Z,5.00
2023-02-08T12:13:52.288Z,4.90
2023-02-08T12:16:54.514Z,5.00
2023-02-08T12:19:42.698Z,5.00
2023-02-08T12:22:16.026Z,5.10
2023-02-08T12:24:52.015Z,5.10
2023-02-08T12:27:36.441Z,5.10
2023-02-08T12:30:15.148Z,5.10
2023-02-08T12:33:07.277Z,5.10
2023-02-08T12:36:11.589Z,5.10
2023-02-08T12:39:45.070Z,5.10
2023-02-08T12:42:29.473Z,5.10
2023-02-08T12:45:32.105Z,5.10
2023-02-08T12:48:13.916Z,5.30
2023-02-08T12:50:53.373Z,5.30
2023-02-08T12:53:32.636Z,5.30
2023-02-08T12:56:12.844Z,5.30
2023-02-08T12:58:46.201Z,5.20
2023-02-08T13:01:21.443Z,5.20
2023-02-08T13:03:53.592Z,5.20
2023-02-08T13:06:24.201Z,5.20
2023-02-08T13:09:11.624Z,5.20
2023-02-08T13:11:45.528Z,5.20
2023-02-08T13:14:30.977Z,5.20
2023-02-08T13:17:04.848Z,5.30
2023-02-08T13:19:45.696Z,5.30
2023-02-08T13:22:22.854Z,5.30
2023-02-08T13:25:06.468Z,5.30
2023-02-08T13:27:34.970Z,5.30
2023-02-08T13:30:18.872Z,5.30
2023-02-08T13:32:50.405Z,5.30
2023-02-08T13:35:21.315Z,5.40
2023-02-08T13:37:57.867Z,5.40
2023-02-08T13:40:36.933Z,5.40
2023-02-08T13:43:34.006Z,5.40
2023-02-08T13:46:05.043Z,5.40
2023-02-08T13:48:44.255Z,5.40
2023-02-08T13:51:58.612Z,5.50
2023-02-08T13:54:28.989Z,5.40
2023-02-08T13:56:58.751Z,5.50
2023-02-08T13:59:43.653Z,5.50
2023-02-08T14:02:29.996Z,5.50
2023-02-08T14:05:45.364Z,5.50
2023-02-08T14:08:24.024Z,5.50
2023-02-08T14:14:03.047Z,5.50
2023-02-08T14:16:36.624Z,5.50
2023-02-08T14:19:21.120Z,5.50
2023-02-08T14:21:59.046Z,5.50
2023-02-08T14:24:35.024Z,5.50
2023-02-08T14:27:11.187Z,5.50
2023-02-08T14:29:38.375Z,5.50
2023-02-08T14:32:08.562Z,5.50
2023-02-08T14:34:40.619Z,5.50
2023-02-08T14:37:29.981Z,5.50
2023-02-08T14:40:48.476Z,5.50
2023-02-08T14:43:32.211Z,5.60
2023-02-08T14:46:45.263Z,5.60
2023-02-08T14:49:17.352Z,5.60
2023-02-08T14:51:53.276Z,5.70
2023-02-08T14:54:26.694Z,5.60
2023-02-08T14:57:07.521Z,5.70
2023-02-08T14:59:35.709Z,5.60
2023-02-08T15:02:14.846Z,5.60
2023-02-08T15:04:46.044Z,5.60
2023-02-08T15:07:31.298Z,5.60
2023-02-08T15:10:04.508Z,5.60
2023-02-08T15:12:34.906Z,5.70
2023-02-08T15:15:05.047Z,5.70
2023-02-08T15:17:39.354Z,5.70
2023-02-08T15:20:18.003Z,5.70
2023-02-08T15:22:45.626Z,5.70
2023-02-08T15:25:25.649Z,5.70
2023-02-08T15:27:56.004Z,5.60
2023-02-08T15:30:34.492Z,5.60
2023-02-08T15:33:08.953Z,5.50
2023-02-08T15:35:39.230Z,5.50
2023-02-08T15:38:17.052Z,5.50
2023-02-08T15:40:44.229Z,5.60
2023-02-08T15:43:14.102Z,5.60
2023-02-08T15:45:41.341Z,5.60
2023-02-08T15:48:12.610Z,5.50
2023-02-08T15:50:43.113Z,5.60
2023-02-08T15:53:15.776Z,5.50
2023-02-08T15:55:49.264Z,5.50
2023-02-08T15:58:28.501Z,5.50
2023-02-08T16:00:57.624Z,5.50
2023-02-08T16:03:27.880Z,5.50
2023-02-08T16:05:57.940Z,5.40
2023-02-08T16:08:28.713Z,5.40
2023-02-08T16:11:01.985Z,5.40
2023-02-08T16:13:34.016Z,5.40
2023-02-08T16:19:20.032Z,5.30
2023-02-08T16:21:47.090Z,5.30
2023-02-08T16:24:26.005Z,5.30
2023-02-08T16:27:04.413Z,5.30
2023-02-08T16:29:35.982Z,5.30
2023-02-08T16:32:11.170Z,5.30
2023-02-08T16:34:42.017Z,5.20
2023-02-08T16:37:24.023Z,5.10
2023-02-08T16:39:56.363Z,5.10
2023-02-08T16:42:34.078Z,5.00
2023-02-08T16:45:18.613Z,4.90
2023-02-08T16:47:50.288Z,4.90
2023-02-08T16:50:21.025Z,4.80
2023-02-08T16:52:51.078Z,4.90
2023-02-08T16:55:21.299Z,4.80
2023-02-08T16:57:50.804Z,4.80
2023-02-08T17:00:26.043Z,4.60
2023-02-08T17:02:54.614Z,4.40
2023-02-08T17:05:25.888Z,4.10
2023-02-08T17:07:53.093Z,4.10
2023-02-08T17:10:26.497Z,3.90
2023-02-08T17:13:06.832Z,3.80
2023-02-08T17:15:42.440Z,3.70
2023-02-08T17:18:10.914Z,3.60
2023-02-08T17:20:39.523Z,3.40
2023-02-08T17:23:07.232Z,3.40
2023-02-08T17:25:35.165Z,3.40
2023-02-08T17:28:06.065Z,3.30
2023-02-08T17:30:36.812Z,3.20
2023-02-08T17:33:09.279Z,3.20
2023-02-08T17:35:38.100Z,3.20
2023-02-08T17:38:06.669Z,3.20
2023-02-08T17:40:35.782Z,3.10
2023-02-08T17:43:05.057Z,3.00
2023-02-08T17:45:32.745Z,3.00
2023-02-08T17:48:00.354Z,3.00
2023-02-08T17:50:27.723Z,2.90
2023-02-08T17:52:55.646Z,3.00
2023-02-08T17:55:24.853Z,2.90
2023-02-08T17:57:52.844Z,2.80
2023-02-08T18:00:22.958Z,2.80
2023-02-08T18:02:53.019Z,2.80
2023-02-08T18:05:23.429Z,2.80
2023-02-08T18:07:55.059Z,2.80
2023-02-08T18:10:25.616Z,2.70
2023-02-08T18:12:52.623Z,2.50
2023-02-08T18:15:22.244Z,2.50
2023-02-08T18:17:50.582Z,2.50
2023-02-08T18:20:20.834Z,2.50
2023-02-08T18:22:55.778Z,2.40
2023-02-08T18:25:24.175Z,2.30
2023-02-08T18:27:54.063Z,2.30
2023-02-08T18:30:21.450Z,2.40
2023-02-08T18:32:48.387Z,2.30
2023-02-08T18:35:15.352Z,2.30
2023-02-08T18:37:50.064Z,2.40
2023-02-08T18:40:20.229Z,2.50
2023-02-08T18:42:54.580Z,2.30
2023-02-08T18:45:21.718Z,2.20
2023-02-08T18:47:48.718Z,2.20
2023-02-08T18:50:15.948Z,2.10
2023-02-08T18:52:45.842Z,2.10
2023-02-08T18:55:12.896Z,2.10
2023-02-08T18:57:42.630Z,2.00
2023-02-08T19:00:14.294Z,2.00
2023-02-08T19:02:44.026Z,2.00
2023-02-08T19:05:11.038Z,2.10
2023-02-08T19:07:40.968Z,2.10
2023-02-08T19:10:08.827Z,2.20
2023-02-08T19:12:39.701Z,2.00
2023-02-08T19:15:07.882Z,2.10
2023-02-08T19:17:36.187Z,2.00
2023-02-08T19:20:03.817Z,2.10
2023-02-08T19:22:36.822Z,2.20
2023-02-08T19:25:04.713Z,2.00
2023-02-08T19:27:31.759Z,1.80
2023-02-08T19:29:58.867Z,1.70
2023-02-08T19:32:26.077Z,1.70
2023-02-08T19:34:54.675Z,1.80
2023-02-08T19:37:21.751Z,1.70
2023-02-08T19:39:49.104Z,1.60
2023-02-08T19:42:16.140Z,1.60
2023-02-08T19:44:43.103Z,1.50
2023-02-08T19:47:10.867Z,1.50
2023-02-08T19:49:37.956Z,1.40
2023-02-08T19:52:06.485Z,1.40
2023-02-08T19:54:36.518Z,1.50
2023-02-08T19:57:03.943Z,1.50
2023-02-08T19:59:33.136Z,1.50
2023-02-08T20:02:01.632Z,1.40
2023-02-08T20:04:28.777Z,1.50
2023-02-08T20:06:58.796Z,1.50
2023-02-08T20:09:27.151Z,1.50
2023-02-08T20:11:57.304Z,1.50
2023-02-08T20:14:26.509Z,1.50
2023-02-08T20:16:53.991Z,1.40
2023-02-08T20:19:21.041Z,1.30
2023-02-08T20:21:48.649Z,1.30
2023-02-08T20:24:15.855Z,1.10
2023-02-08T20:26:46.732Z,1.00
2023-02-08T20:29:15.040Z,1.20
2023-02-08T20:31:48.120Z,1.10
2023-02-08T20:34:18.544Z,1.10
2023-02-08T20:37:05.314Z,1.10
2023-02-08T20:39:34.647Z,1.10
2023-02-08T20:42:03.932Z,1.10
2023-02-08T20:44:31.761Z,1.00
2023-02-08T20:46:58.915Z,1.00
2023-02-08T20:49:26.848Z,0.90
2023-02-08T20:51:54.671Z,1.00
2023-02-08T20:54:24.766Z,0.90
2023-02-08T20:56:53.389Z,0.70
2023-02-08T20:59:22.416Z,0.80
2023-02-08T21:01:50.439Z,0.70
2023-02-08T21:04:19.737Z,0.70
2023-02-08T21:06:47.370Z,0.60
2023-02-08T21:09:19.413Z,0.70
2023-02-08T21:11:47.464Z,0.70
2023-02-08T21:14:19.155Z,0.70
2023-02-08T21:16:51.371Z,0.80
2023-02-08T21:19:20.899Z,0.80
2023-02-08T21:21:50.867Z,0.90
2023-02-08T21:24:18.224Z,0.80
2023-02-08T21:26:45.553Z,0.90
2023-02-08T21:29:12.730Z,0.80
2023-02-08T21:31:39.786Z,0.80
2023-02-08T21:34:08.623Z,0.80
2023-02-08T21:36:38.481Z,0.70
2023-02-08T21:39:05.642Z,0.60
2023-02-08T21:41:33.991Z,0.60
2023-02-08T21:44:04.190Z,0.60
2023-02-08T21:46:37.319Z,0.60
2023-02-08T21:49:22.983Z,0.40
2023-02-08T21:52:12.588Z,0.40
2023-02-08T21:54:42.975Z,0.40
2023-02-08T21:57:14.506Z,0.40
2023-02-08T21:59:51.674Z,0.40
2023-02-08T22:02:21.902Z,0.50
2023-02-08T22:04:49.797Z,0.50
2023-02-08T22:07:18.326Z,0.60
2023-02-08T22:09:45.320Z,0.60
2023-02-08T22:12:16.242Z,0.70
2023-02-08T22:14:55.616Z,0.70
2023-02-08T22:17:25.745Z,0.80
2023-02-08T22:19:52.930Z,0.90
2023-02-08T22:22:21.302Z,0.80
2023-02-08T22:24:48.321Z,0.90
2023-02-08T22:27:15.646Z,0.90
2023-02-08T22:29:42.636Z,0.90
2023-02-08T22:32:13.241Z,1.10
2023-02-08T22:34:40.626Z,1.10
2023-02-08T22:37:07.616Z,1.10
2023-02-08T22:39:39.432Z,1.10
2023-02-08T22:42:08.880Z,1.20
2023-02-08T22:44:40.532Z,1.20
2023-02-08T22:47:10.192Z,1.40
2023-02-08T22:49:37.943Z,1.50
2023-02-08T22:52:06.691Z,1.60
2023-02-08T22:54:42.931Z,1.40
2023-02-08T22:57:11.101Z,1.40
2023-02-08T22:59:39.190Z,1.30
2023-02-08T23:02:06.846Z,1.40
2023-02-08T23:04:39.622Z,1.50
2023-02-08T23:07:06.666Z,1.50
2023-02-08T23:09:33.761Z,1.50
2023-02-08T23:12:02.253Z,1.60
2023-02-08T23:14:31.656Z,1.60
2023-02-08T23:16:59.219Z,1.50
2023-02-08T23:19:27.150Z,1.50
2023-02-08T23:21:58.010Z,1.50
2023-02-08T23:24:25.248Z,1.50
2023-02-08T23:27:03.839Z,1.50
2023-02-08T23:29:32.389Z,1.50
2023-02-08T23:32:02.422Z,1.40
2023-02-08T23:34:34.004Z,1.40
2023-02-08T23:37:01.181Z,1.40
2023-02-08T23:39:28.283Z,1.30
2023-02-08T23:41:56.164Z,1.20
2023-02-08T23:44:26.506Z,1.20
2023-02-08T23:46:55.042Z,1.20
2023-02-08T23:49:25.246Z,1.30
2023-02-08T23:51:55.627Z,1.10
2023-02-08T23:54:22.604Z,1.00
2023-02-08T23:57:01.089Z,0.80
2023-02-08T23:59:28.078Z,0.80
